sensor_id;sensor_type;location;lat;lon;timestamp;P1;durP1;ratioP1;P2;durP2;ratioP2
76548;SDS011;65391;52.068;4.542;2023-12-29T00:01:29;9.9;;;2.2;;
76548;SDS011;65391;52.068;4.542;2023-12-29T00:03:53;9.9;;;2.2;;
76548;SDS011;65391;52.068;4.542;2023-12-29T00:06:18;9.9;;;2.2;;
76548;SDS011;65391;52.068;4.542;2023-12-29T00:08:43;8.1;;;1.8;;
76548;SDS011;65391;52.068;4.542;2023-12-29T00:11:16;8.1;;;1.8;;
76548;SDS011;65391;52.068;4.542;2023-12-29T00:13:36;8.1;;;1.8;;
76548;SDS011;65391;52.068;4.542;2023-12-29T00:15:58;8.1;;;1.8;;
76548;SDS011;65391;52.068;4.542;2023-12-29T00:18:23;12.9;;;1.8;;
76548;SDS011;65391;52.068;4.542;2023-12-29T00:20:49;12.9;;;1.8;;
76548;SDS011;65391;52.068;4.542;2023-12-29T00:23:13;12.9;;;1.8;;
76548;SDS011;65391;52.068;4.542;2023-12-29T00:25:39;12.9;;;1.8;;
76548;SDS011;65391;52.068;4.542;2023-12-29T00:28:04;9.3;;;1.6;;
76548;SDS011;65391;52.068;4.542;2023-12-29T00:30:28;9.3;;;1.6;;
76548;SDS011;65391;52.068;4.542;2023-12-29T00:32:54;9.3;;;1.6;;
76548;SDS011;65391;52.068;4.542;2023-12-29T00:35:18;9.3;;;1.6;;
76548;SDS011;65391;52.068;4.542;2023-12-29T00:37:43;9.6;;;2.1;;
76548;SDS011;65391;52.068;4.542;2023-12-29T00:40:09;9.6;;;2.1;;
76548;SDS011;65391;52.068;4.542;2023-12-29T00:42:34;9.6;;;2.1;;
76548;SDS011;65391;52.068;4.542;2023-12-29T00:44:59;9.6;;;2.1;;
76548;SDS011;65391;52.068;4.542;2023-12-29T00:47:24;12.8;;;2.7;;
76548;SDS011;65391;52.068;4.542;2023-12-29T00:49:49;12.8;;;2.7;;
76548;SDS011;65391;52.068;4.542;2023-12-29T00:52:14;12.8;;;2.7;;
76548;SDS011;65391;52.068;4.542;2023-12-29T00:54:39;12.8;;;2.7;;
76548;SDS011;65391;52.068;4.542;2023-12-29T00:57:04;11.9;;;1.7;;
76548;SDS011;65391;52.068;4.542;2023-12-29T00:59:29;11.9;;;1.7;;
76548;SDS011;65391;52.068;4.542;2023-12-29T01:01:54;11.9;;;1.7;;
76548;SDS011;65391;52.068;4.542;2023-12-29T01:04:19;11.9;;;1.7;;
76548;SDS011;65391;52.068;4.542;2023-12-29T01:06:44;11.9;;;1.7;;
76548;SDS011;65391;52.068;4.542;2023-12-29T01:09:09;10.9;;;1.8;;
76548;SDS011;65391;52.068;4.542;2023-12-29T01:11:34;10.9;;;1.8;;
76548;SDS011;65391;52.068;4.542;2023-12-29T01:13:59;10.9;;;1.8;;
76548;SDS011;65391;52.068;4.542;2023-12-29T01:16:24;10.9;;;1.8;;
76548;SDS011;65391;52.068;4.542;2023-12-29T01:18:49;10.5;;;1.7;;
76548;SDS011;65391;52.068;4.542;2023-12-29T01:21:14;10.5;;;1.7;;
76548;SDS011;65391;52.068;4.542;2023-12-29T01:23:39;10.5;;;1.7;;
76548;SDS011;65391;52.068;4.542;2023-12-29T01:26:04;10.5;;;1.7;;
76548;SDS011;65391;52.068;4.542;2023-12-29T01:28:29;10.8;;;1.8;;
76548;SDS011;65391;52.068;4.542;2023-12-29T01:30:54;10.8;;;1.8;;
76548;SDS011;65391;52.068;4.542;2023-12-29T01:33:19;10.8;;;1.8;;
76548;SDS011;65391;52.068;4.542;2023-12-29T01:35:44;10.8;;;1.8;;
76548;SDS011;65391;52.068;4.542;2023-12-29T01:38:09;10.2;;;2.1;;
76548;SDS011;65391;52.068;4.542;2023-12-29T01:40:42;10.2;;;2.1;;
76548;SDS011;65391;52.068;4.542;2023-12-29T01:42:59;10.2;;;2.1;;
76548;SDS011;65391;52.068;4.542;2023-12-29T01:45:24;10.2;;;2.1;;
76548;SDS011;65391;52.068;4.542;2023-12-29T01:47:49;10;;;1.7;;
76548;SDS011;65391;52.068;4.542;2023-12-29T01:50:14;10;;;1.7;;
76548;SDS011;65391;52.068;4.542;2023-12-29T01:52:39;10;;;1.7;;
76548;SDS011;65391;52.068;4.542;2023-12-29T01:55:04;10;;;1.7;;
76548;SDS011;65391;52.068;4.542;2023-12-29T01:57:31;7.2;;;1.6;;
76548;SDS011;65391;52.068;4.542;2023-12-29T01:59:54;7.2;;;1.6;;
76548;SDS011;65391;52.068;4.542;2023-12-29T02:02:19;7.2;;;1.6;;
76548;SDS011;65391;52.068;4.542;2023-12-29T02:04:44;7.2;;;1.6;;
76548;SDS011;65391;52.068;4.542;2023-12-29T02:07:09;12.1;;;2.3;;
76548;SDS011;65391;52.068;4.542;2023-12-29T02:09:34;12.1;;;2.3;;
76548;SDS011;65391;52.068;4.542;2023-12-29T02:11:59;12.1;;;2.3;;
76548;SDS011;65391;52.068;4.542;2023-12-29T02:14:24;12.1;;;2.3;;
76548;SDS011;65391;52.068;4.542;2023-12-29T02:16:53;12.1;;;2.3;;
76548;SDS011;65391;52.068;4.542;2023-12-29T02:19:23;10.7;;;1.9;;
76548;SDS011;65391;52.068;4.542;2023-12-29T02:21:39;10.7;;;1.9;;
76548;SDS011;65391;52.068;4.542;2023-12-29T02:24:04;10.7;;;1.9;;
76548;SDS011;65391;52.068;4.542;2023-12-29T02:26:29;10.7;;;1.9;;
76548;SDS011;65391;52.068;4.542;2023-12-29T02:28:56;8.6;;;1.8;;
76548;SDS011;65391;52.068;4.542;2023-12-29T02:31:20;8.6;;;1.8;;
76548;SDS011;65391;52.068;4.542;2023-12-29T02:33:44;8.6;;;1.8;;
76548;SDS011;65391;52.068;4.542;2023-12-29T02:36:09;8.6;;;1.8;;
76548;SDS011;65391;52.068;4.542;2023-12-29T02:38:34;11.8;;;1.9;;
76548;SDS011;65391;52.068;4.542;2023-12-29T02:40:59;11.8;;;1.9;;
76548;SDS011;65391;52.068;4.542;2023-12-29T02:43:24;11.8;;;1.9;;
76548;SDS011;65391;52.068;4.542;2023-12-29T02:45:49;11.8;;;1.9;;
76548;SDS011;65391;52.068;4.542;2023-12-29T02:48:14;9.2;;;1.6;;
76548;SDS011;65391;52.068;4.542;2023-12-29T02:50:39;9.2;;;1.6;;
76548;SDS011;65391;52.068;4.542;2023-12-29T02:53:04;9.2;;;1.6;;
76548;SDS011;65391;52.068;4.542;2023-12-29T02:55:29;9.2;;;1.6;;
76548;SDS011;65391;52.068;4.542;2023-12-29T02:57:54;11.8;;;2.3;;
76548;SDS011;65391;52.068;4.542;2023-12-29T03:00:19;11.8;;;2.3;;
76548;SDS011;65391;52.068;4.542;2023-12-29T03:02:44;11.8;;;2.3;;
76548;SDS011;65391;52.068;4.542;2023-12-29T03:05:09;11.8;;;2.3;;
76548;SDS011;65391;52.068;4.542;2023-12-29T03:07:34;14.8;;;2.9;;
76548;SDS011;65391;52.068;4.542;2023-12-29T03:09:59;14.8;;;2.9;;
76548;SDS011;65391;52.068;4.542;2023-12-29T03:12:24;14.8;;;2.9;;
76548;SDS011;65391;52.068;4.542;2023-12-29T03:14:49;14.8;;;2.9;;
76548;SDS011;65391;52.068;4.542;2023-12-29T03:17:14;14.5;;;2.7;;
76548;SDS011;65391;52.068;4.542;2023-12-29T03:19:39;14.5;;;2.7;;
76548;SDS011;65391;52.068;4.542;2023-12-29T03:22:04;14.5;;;2.7;;
76548;SDS011;65391;52.068;4.542;2023-12-29T03:24:29;14.5;;;2.7;;
76548;SDS011;65391;52.068;4.542;2023-12-29T03:26:54;14.5;;;2.7;;
76548;SDS011;65391;52.068;4.542;2023-12-29T03:29:19;16.9;;;4.6;;
76548;SDS011;65391;52.068;4.542;2023-12-29T03:31:44;16.9;;;4.6;;
76548;SDS011;65391;52.068;4.542;2023-12-29T03:34:09;16.9;;;4.6;;
76548;SDS011;65391;52.068;4.542;2023-12-29T03:36:34;16.9;;;4.6;;
76548;SDS011;65391;52.068;4.542;2023-12-29T03:39:03;13.8;;;4.4;;
76548;SDS011;65391;52.068;4.542;2023-12-29T03:41:24;13.8;;;4.4;;
76548;SDS011;65391;52.068;4.542;2023-12-29T03:43:49;13.8;;;4.4;;
76548;SDS011;65391;52.068;4.542;2023-12-29T03:46:16;13.8;;;4.4;;
76548;SDS011;65391;52.068;4.542;2023-12-29T03:48:39;11.8;;;2;;
76548;SDS011;65391;52.068;4.542;2023-12-29T03:51:04;11.8;;;2;;
76548;SDS011;65391;52.068;4.542;2023-12-29T03:53:29;11.8;;;2;;
76548;SDS011;65391;52.068;4.542;2023-12-29T03:55:54;11.8;;;2;;
76548;SDS011;65391;52.068;4.542;2023-12-29T03:58:19;13.3;;;4.5;;
76548;SDS011;65391;52.068;4.542;2023-12-29T04:00:44;13.3;;;4.5;;
76548;SDS011;65391;52.068;4.542;2023-12-29T04:03:09;13.3;;;4.5;;
76548;SDS011;65391;52.068;4.542;2023-12-29T04:05:34;13.3;;;4.5;;
76548;SDS011;65391;52.068;4.542;2023-12-29T04:07:59;13.5;;;3.6;;
76548;SDS011;65391;52.068;4.542;2023-12-29T04:10:24;13.5;;;3.6;;
76548;SDS011;65391;52.068;4.542;2023-12-29T04:12:49;13.5;;;3.6;;
76548;SDS011;65391;52.068;4.542;2023-12-29T04:15:14;13.5;;;3.6;;
76548;SDS011;65391;52.068;4.542;2023-12-29T04:17:39;15.3;;;3.6;;
76548;SDS011;65391;52.068;4.542;2023-12-29T04:20:05;15.3;;;3.6;;
76548;SDS011;65391;52.068;4.542;2023-12-29T04:22:29;15.3;;;3.6;;
76548;SDS011;65391;52.068;4.542;2023-12-29T04:24:54;15.3;;;3.6;;
76548;SDS011;65391;52.068;4.542;2023-12-29T04:27:19;16.8;;;4.2;;
76548;SDS011;65391;52.068;4.542;2023-12-29T04:29:44;16.8;;;4.2;;
76548;SDS011;65391;52.068;4.542;2023-12-29T04:32:09;16.8;;;4.2;;
76548;SDS011;65391;52.068;4.542;2023-12-29T04:34:34;16.8;;;4.2;;
76548;SDS011;65391;52.068;4.542;2023-12-29T04:36:59;16.8;;;4.2;;
76548;SDS011;65391;52.068;4.542;2023-12-29T04:39:24;16.8;;;4.3;;
76548;SDS011;65391;52.068;4.542;2023-12-29T04:41:49;16.8;;;4.3;;
76548;SDS011;65391;52.068;4.542;2023-12-29T04:44:14;16.8;;;4.3;;
76548;SDS011;65391;52.068;4.542;2023-12-29T04:46:39;16.8;;;4.3;;
76548;SDS011;65391;52.068;4.542;2023-12-29T04:49:04;16.3;;;3.7;;
76548;SDS011;65391;52.068;4.542;2023-12-29T04:51:31;16.3;;;3.7;;
76548;SDS011;65391;52.068;4.542;2023-12-29T04:53:54;16.3;;;3.7;;
76548;SDS011;65391;52.068;4.542;2023-12-29T04:56:19;16.3;;;3.7;;
76548;SDS011;65391;52.068;4.542;2023-12-29T04:58:44;16.6;;;4.4;;
76548;SDS011;65391;52.068;4.542;2023-12-29T05:01:09;16.6;;;4.4;;
76548;SDS011;65391;52.068;4.542;2023-12-29T05:03:34;16.6;;;4.4;;
76548;SDS011;65391;52.068;4.542;2023-12-29T05:05:59;16.6;;;4.4;;
76548;SDS011;65391;52.068;4.542;2023-12-29T05:08:24;17.8;;;5.5;;
76548;SDS011;65391;52.068;4.542;2023-12-29T05:10:49;17.8;;;5.5;;
76548;SDS011;65391;52.068;4.542;2023-12-29T05:13:14;17.8;;;5.5;;
76548;SDS011;65391;52.068;4.542;2023-12-29T05:15:39;17.8;;;5.5;;
76548;SDS011;65391;52.068;4.542;2023-12-29T05:18:04;16.2;;;3.3;;
76548;SDS011;65391;52.068;4.542;2023-12-29T05:20:29;16.2;;;3.3;;
76548;SDS011;65391;52.068;4.542;2023-12-29T05:22:54;16.2;;;3.3;;
76548;SDS011;65391;52.068;4.542;2023-12-29T05:25:19;16.2;;;3.3;;
76548;SDS011;65391;52.068;4.542;2023-12-29T05:27:44;14.7;;;4;;
76548;SDS011;65391;52.068;4.542;2023-12-29T05:30:10;14.7;;;4;;
76548;SDS011;65391;52.068;4.542;2023-12-29T05:32:34;14.7;;;4;;
76548;SDS011;65391;52.068;4.542;2023-12-29T05:34:59;14.7;;;4;;
76548;SDS011;65391;52.068;4.542;2023-12-29T05:37:24;16.1;;;5.4;;
76548;SDS011;65391;52.068;4.542;2023-12-29T05:39:49;16.1;;;5.4;;
76548;SDS011;65391;52.068;4.542;2023-12-29T05:42:14;16.1;;;5.4;;
76548;SDS011;65391;52.068;4.542;2023-12-29T05:44:39;16.1;;;5.4;;
76548;SDS011;65391;52.068;4.542;2023-12-29T05:47:04;16.1;;;5.4;;
76548;SDS011;65391;52.068;4.542;2023-12-29T05:49:29;16.5;;;4.1;;
76548;SDS011;65391;52.068;4.542;2023-12-29T05:51:54;16.5;;;4.1;;
76548;SDS011;65391;52.068;4.542;2023-12-29T05:54:19;16.5;;;4.1;;
76548;SDS011;65391;52.068;4.542;2023-12-29T05:56:44;16.5;;;4.1;;
76548;SDS011;65391;52.068;4.542;2023-12-29T05:59:09;14.1;;;3.8;;
76548;SDS011;65391;52.068;4.542;2023-12-29T06:01:34;14.1;;;3.8;;
76548;SDS011;65391;52.068;4.542;2023-12-29T06:03:59;14.1;;;3.8;;
76548;SDS011;65391;52.068;4.542;2023-12-29T06:06:24;14.1;;;3.8;;
76548;SDS011;65391;52.068;4.542;2023-12-29T06:08:49;16.2;;;4;;
76548;SDS011;65391;52.068;4.542;2023-12-29T06:11:14;16.2;;;4;;
76548;SDS011;65391;52.068;4.542;2023-12-29T06:13:39;16.2;;;4;;
76548;SDS011;65391;52.068;4.542;2023-12-29T06:16:05;16.2;;;4;;
76548;SDS011;65391;52.068;4.542;2023-12-29T06:18:29;13.5;;;3.1;;
76548;SDS011;65391;52.068;4.542;2023-12-29T06:20:54;13.5;;;3.1;;
76548;SDS011;65391;52.068;4.542;2023-12-29T06:23:19;13.5;;;3.1;;
76548;SDS011;65391;52.068;4.542;2023-12-29T06:25:44;13.5;;;3.1;;
76548;SDS011;65391;52.068;4.542;2023-12-29T06:28:09;13.3;;;2.6;;
76548;SDS011;65391;52.068;4.542;2023-12-29T06:30:34;13.3;;;2.6;;
76548;SDS011;65391;52.068;4.542;2023-12-29T06:32:59;13.3;;;2.6;;
76548;SDS011;65391;52.068;4.542;2023-12-29T06:35:24;13.3;;;2.6;;
76548;SDS011;65391;52.068;4.542;2023-12-29T06:37:49;14.4;;;2.3;;
76548;SDS011;65391;52.068;4.542;2023-12-29T06:40:16;14.4;;;2.3;;
76548;SDS011;65391;52.068;4.542;2023-12-29T06:42:39;14.4;;;2.3;;
76548;SDS011;65391;52.068;4.542;2023-12-29T06:45:05;14.4;;;2.3;;
76548;SDS011;65391;52.068;4.542;2023-12-29T06:47:29;15;;;2.6;;
76548;SDS011;65391;52.068;4.542;2023-12-29T06:49:54;15;;;2.6;;
76548;SDS011;65391;52.068;4.542;2023-12-29T06:52:19;15;;;2.6;;
76548;SDS011;65391;52.068;4.542;2023-12-29T06:54:44;15;;;2.6;;
76548;SDS011;65391;52.068;4.542;2023-12-29T06:57:09;15;;;2.6;;
76548;SDS011;65391;52.068;4.542;2023-12-29T06:59:34;9.1;;;1.6;;
76548;SDS011;65391;52.068;4.542;2023-12-29T07:01:59;9.1;;;1.6;;
76548;SDS011;65391;52.068;4.542;2023-12-29T07:04:24;9.1;;;1.6;;
76548;SDS011;65391;52.068;4.542;2023-12-29T07:06:49;9.1;;;1.6;;
76548;SDS011;65391;52.068;4.542;2023-12-29T07:09:14;11.3;;;2;;
76548;SDS011;65391;52.068;4.542;2023-12-29T07:11:39;11.3;;;2;;
76548;SDS011;65391;52.068;4.542;2023-12-29T07:14:04;11.3;;;2;;
76548;SDS011;65391;52.068;4.542;2023-12-29T07:16:29;11.3;;;2;;
76548;SDS011;65391;52.068;4.542;2023-12-29T07:18:54;11.6;;;1.7;;
76548;SDS011;65391;52.068;4.542;2023-12-29T07:21:19;11.6;;;1.7;;
76548;SDS011;65391;52.068;4.542;2023-12-29T07:23:44;11.6;;;1.7;;
76548;SDS011;65391;52.068;4.542;2023-12-29T07:26:09;11.6;;;1.7;;
76548;SDS011;65391;52.068;4.542;2023-12-29T07:28:34;12.8;;;2.1;;
76548;SDS011;65391;52.068;4.542;2023-12-29T07:30:59;12.8;;;2.1;;
76548;SDS011;65391;52.068;4.542;2023-12-29T07:33:24;12.8;;;2.1;;
76548;SDS011;65391;52.068;4.542;2023-12-29T07:35:49;12.8;;;2.1;;
76548;SDS011;65391;52.068;4.542;2023-12-29T07:38:14;10;;;1.6;;
76548;SDS011;65391;52.068;4.542;2023-12-29T07:40:39;10;;;1.6;;
76548;SDS011;65391;52.068;4.542;2023-12-29T07:43:04;10;;;1.6;;
76548;SDS011;65391;52.068;4.542;2023-12-29T07:45:29;10;;;1.6;;
76548;SDS011;65391;52.068;4.542;2023-12-29T07:47:55;10.2;;;1.5;;
76548;SDS011;65391;52.068;4.542;2023-12-29T07:50:19;10.2;;;1.5;;
76548;SDS011;65391;52.068;4.542;2023-12-29T07:52:44;10.2;;;1.5;;
76548;SDS011;65391;52.068;4.542;2023-12-29T07:55:09;10.2;;;1.5;;
76548;SDS011;65391;52.068;4.542;2023-12-29T07:57:34;10.2;;;1.5;;
76548;SDS011;65391;52.068;4.542;2023-12-29T08:00:00;12.2;;;1.6;;
76548;SDS011;65391;52.068;4.542;2023-12-29T08:02:24;12.2;;;1.6;;
76548;SDS011;65391;52.068;4.542;2023-12-29T08:04:49;12.2;;;1.6;;
76548;SDS011;65391;52.068;4.542;2023-12-29T08:07:14;12.2;;;1.6;;
76548;SDS011;65391;52.068;4.542;2023-12-29T08:09:39;10.1;;;1.5;;
76548;SDS011;65391;52.068;4.542;2023-12-29T08:12:05;10.1;;;1.5;;
76548;SDS011;65391;52.068;4.542;2023-12-29T08:14:29;10.1;;;1.5;;
76548;SDS011;65391;52.068;4.542;2023-12-29T08:16:54;10.1;;;1.5;;
76548;SDS011;65391;52.068;4.542;2023-12-29T08:19:19;8.3;;;1.4;;
76548;SDS011;65391;52.068;4.542;2023-12-29T08:21:44;8.3;;;1.4;;
76548;SDS011;65391;52.068;4.542;2023-12-29T08:24:09;8.3;;;1.4;;
76548;SDS011;65391;52.068;4.542;2023-12-29T08:26:42;8.3;;;1.4;;
76548;SDS011;65391;52.068;4.542;2023-12-29T08:28:59;5.6;;;1;;
76548;SDS011;65391;52.068;4.542;2023-12-29T08:31:24;5.6;;;1;;
76548;SDS011;65391;52.068;4.542;2023-12-29T08:33:49;5.6;;;1;;
76548;SDS011;65391;52.068;4.542;2023-12-29T08:36:17;5.6;;;1;;
76548;SDS011;65391;52.068;4.542;2023-12-29T08:38:39;8.3;;;0.9;;
76548;SDS011;65391;52.068;4.542;2023-12-29T08:41:04;8.3;;;0.9;;
76548;SDS011;65391;52.068;4.542;2023-12-29T08:43:29;8.3;;;0.9;;
76548;SDS011;65391;52.068;4.542;2023-12-29T08:45:54;8.3;;;0.9;;
76548;SDS011;65391;52.068;4.542;2023-12-29T08:48:19;7.7;;;1.5;;
76548;SDS011;65391;52.068;4.542;2023-12-29T08:50:44;7.7;;;1.5;;
76548;SDS011;65391;52.068;4.542;2023-12-29T08:53:09;7.7;;;1.5;;
76548;SDS011;65391;52.068;4.542;2023-12-29T08:55:34;7.7;;;1.5;;
76548;SDS011;65391;52.068;4.542;2023-12-29T08:57:59;11.9;;;2.1;;
76548;SDS011;65391;52.068;4.542;2023-12-29T09:00:24;11.9;;;2.1;;
76548;SDS011;65391;52.068;4.542;2023-12-29T09:02:49;11.9;;;2.1;;
76548;SDS011;65391;52.068;4.542;2023-12-29T09:05:14;11.9;;;2.1;;
76548;SDS011;65391;52.068;4.542;2023-12-29T09:07:40;11.9;;;2.1;;
76548;SDS011;65391;52.068;4.542;2023-12-29T09:10:05;7.1;;;1.7;;
76548;SDS011;65391;52.068;4.542;2023-12-29T09:12:29;7.1;;;1.7;;
76548;SDS011;65391;52.068;4.542;2023-12-29T09:14:54;7.1;;;1.7;;
76548;SDS011;65391;52.068;4.542;2023-12-29T09:17:19;7.1;;;1.7;;
76548;SDS011;65391;52.068;4.542;2023-12-29T09:19:44;10;;;1.8;;
76548;SDS011;65391;52.068;4.542;2023-12-29T09:22:09;10;;;1.8;;
76548;SDS011;65391;52.068;4.542;2023-12-29T09:24:34;10;;;1.8;;
76548;SDS011;65391;52.068;4.542;2023-12-29T09:26:59;10;;;1.8;;
76548;SDS011;65391;52.068;4.542;2023-12-29T09:29:24;9.3;;;1.6;;
76548;SDS011;65391;52.068;4.542;2023-12-29T09:31:49;9.3;;;1.6;;
76548;SDS011;65391;52.068;4.542;2023-12-29T09:34:14;9.3;;;1.6;;
76548;SDS011;65391;52.068;4.542;2023-12-29T09:36:39;9.3;;;1.6;;
76548;SDS011;65391;52.068;4.542;2023-12-29T09:39:04;8.1;;;1.4;;
76548;SDS011;65391;52.068;4.542;2023-12-29T09:41:29;8.1;;;1.4;;
76548;SDS011;65391;52.068;4.542;2023-12-29T09:43:54;8.1;;;1.4;;
76548;SDS011;65391;52.068;4.542;2023-12-29T09:46:21;8.1;;;1.4;;
76548;SDS011;65391;52.068;4.542;2023-12-29T09:48:45;4.5;;;1;;
76548;SDS011;65391;52.068;4.542;2023-12-29T09:51:09;4.5;;;1;;
76548;SDS011;65391;52.068;4.542;2023-12-29T09:53:34;4.5;;;1;;
76548;SDS011;65391;52.068;4.542;2023-12-29T09:55:59;4.5;;;1;;
76548;SDS011;65391;52.068;4.542;2023-12-29T09:58:24;6.9;;;1.2;;
76548;SDS011;65391;52.068;4.542;2023-12-29T10:00:50;6.9;;;1.2;;
76548;SDS011;65391;52.068;4.542;2023-12-29T10:03:14;6.9;;;1.2;;
76548;SDS011;65391;52.068;4.542;2023-12-29T10:05:39;6.9;;;1.2;;
76548;SDS011;65391;52.068;4.542;2023-12-29T10:08:05;11.4;;;1.9;;
76548;SDS011;65391;52.068;4.542;2023-12-29T10:10:29;11.4;;;1.9;;
76548;SDS011;65391;52.068;4.542;2023-12-29T10:12:54;11.4;;;1.9;;
76548;SDS011;65391;52.068;4.542;2023-12-29T10:15:20;11.4;;;1.9;;
76548;SDS011;65391;52.068;4.542;2023-12-29T10:17:50;11.4;;;1.9;;
76548;SDS011;65391;52.068;4.542;2023-12-29T10:20:15;5.5;;;1.2;;
76548;SDS011;65391;52.068;4.542;2023-12-29T10:22:37;5.5;;;1.2;;
76548;SDS011;65391;52.068;4.542;2023-12-29T10:25:00;5.5;;;1.2;;
76548;SDS011;65391;52.068;4.542;2023-12-29T10:27:25;5.5;;;1.2;;
76548;SDS011;65391;52.068;4.542;2023-12-29T10:29:49;13.1;;;2;;
76548;SDS011;65391;52.068;4.542;2023-12-29T10:32:14;13.1;;;2;;
76548;SDS011;65391;52.068;4.542;2023-12-29T10:34:39;13.1;;;2;;
76548;SDS011;65391;52.068;4.542;2023-12-29T10:37:04;13.1;;;2;;
76548;SDS011;65391;52.068;4.542;2023-12-29T10:39:29;11.2;;;1.7;;
76548;SDS011;65391;52.068;4.542;2023-12-29T10:42:02;11.2;;;1.7;;
76548;SDS011;65391;52.068;4.542;2023-12-29T10:44:19;11.2;;;1.7;;
76548;SDS011;65391;52.068;4.542;2023-12-29T10:46:44;11.2;;;1.7;;
76548;SDS011;65391;52.068;4.542;2023-12-29T10:49:10;14.6;;;2.6;;
76548;SDS011;65391;52.068;4.542;2023-12-29T10:51:34;14.6;;;2.6;;
76548;SDS011;65391;52.068;4.542;2023-12-29T10:53:59;14.6;;;2.6;;
76548;SDS011;65391;52.068;4.542;2023-12-29T10:56:24;14.6;;;2.6;;
76548;SDS011;65391;52.068;4.542;2023-12-29T10:58:57;13.8;;;2.1;;
76548;SDS011;65391;52.068;4.542;2023-12-29T11:01:14;13.8;;;2.1;;
76548;SDS011;65391;52.068;4.542;2023-12-29T11:03:39;13.8;;;2.1;;
76548;SDS011;65391;52.068;4.542;2023-12-29T11:06:04;13.8;;;2.1;;
76548;SDS011;65391;52.068;4.542;2023-12-29T11:08:29;14.1;;;2.5;;
76548;SDS011;65391;52.068;4.542;2023-12-29T11:10:54;14.1;;;2.5;;
76548;SDS011;65391;52.068;4.542;2023-12-29T11:13:20;14.1;;;2.5;;
76548;SDS011;65391;52.068;4.542;2023-12-29T11:15:44;14.1;;;2.5;;
76548;SDS011;65391;52.068;4.542;2023-12-29T11:18:11;14.3;;;2.5;;
76548;SDS011;65391;52.068;4.542;2023-12-29T11:20:34;14.3;;;2.5;;
76548;SDS011;65391;52.068;4.542;2023-12-29T11:22:59;14.3;;;2.5;;
76548;SDS011;65391;52.068;4.542;2023-12-29T11:25:24;14.3;;;2.5;;
76548;SDS011;65391;52.068;4.542;2023-12-29T11:27:49;14.3;;;2.5;;
76548;SDS011;65391;52.068;4.542;2023-12-29T11:30:14;14.8;;;2.3;;
76548;SDS011;65391;52.068;4.542;2023-12-29T11:32:41;14.8;;;2.3;;
76548;SDS011;65391;52.068;4.542;2023-12-29T11:35:11;14.8;;;2.3;;
76548;SDS011;65391;52.068;4.542;2023-12-29T11:37:33;14.8;;;2.3;;
76548;SDS011;65391;52.068;4.542;2023-12-29T11:39:58;14.1;;;2.6;;
76548;SDS011;65391;52.068;4.542;2023-12-29T11:42:21;14.1;;;2.6;;
76548;SDS011;65391;52.068;4.542;2023-12-29T11:44:44;14.1;;;2.6;;
76548;SDS011;65391;52.068;4.542;2023-12-29T11:47:47;14.1;;;2.6;;
76548;SDS011;65391;52.068;4.542;2023-12-29T11:49:58;13.5;;;2.5;;
76548;SDS011;65391;52.068;4.542;2023-12-29T11:51:59;13.5;;;2.5;;
76548;SDS011;65391;52.068;4.542;2023-12-29T11:54:25;13.5;;;2.5;;
76548;SDS011;65391;52.068;4.542;2023-12-29T11:56:50;13.5;;;2.5;;
76548;SDS011;65391;52.068;4.542;2023-12-29T11:59:15;8.4;;;1.7;;
76548;SDS011;65391;52.068;4.542;2023-12-29T12:01:39;8.4;;;1.7;;
76548;SDS011;65391;52.068;4.542;2023-12-29T12:04:05;8.4;;;1.7;;
76548;SDS011;65391;52.068;4.542;2023-12-29T12:06:37;8.4;;;1.7;;
76548;SDS011;65391;52.068;4.542;2023-12-29T12:09:15;10.8;;;1.7;;
76548;SDS011;65391;52.068;4.542;2023-12-29T12:11:51;10.8;;;1.7;;
76548;SDS011;65391;52.068;4.542;2023-12-29T12:13:45;10.8;;;1.7;;
76548;SDS011;65391;52.068;4.542;2023-12-29T12:16:09;10.8;;;1.7;;
76548;SDS011;65391;52.068;4.542;2023-12-29T12:18:34;14.6;;;3;;
76548;SDS011;65391;52.068;4.542;2023-12-29T12:21:00;14.6;;;3;;
76548;SDS011;65391;52.068;4.542;2023-12-29T12:23:24;14.6;;;3;;
76548;SDS011;65391;52.068;4.542;2023-12-29T12:25:49;14.6;;;3;;
76548;SDS011;65391;52.068;4.542;2023-12-29T12:28:14;11.8;;;1.9;;
76548;SDS011;65391;52.068;4.542;2023-12-29T12:30:39;11.8;;;1.9;;
76548;SDS011;65391;52.068;4.542;2023-12-29T12:33:05;11.8;;;1.9;;
76548;SDS011;65391;52.068;4.542;2023-12-29T12:35:29;11.8;;;1.9;;
76548;SDS011;65391;52.068;4.542;2023-12-29T12:38:07;11.8;;;1.9;;
76548;SDS011;65391;52.068;4.542;2023-12-29T12:40:27;11;;;2.5;;
76548;SDS011;65391;52.068;4.542;2023-12-29T12:42:44;11;;;2.5;;
76548;SDS011;65391;52.068;4.542;2023-12-29T12:45:11;11;;;2.5;;
76548;SDS011;65391;52.068;4.542;2023-12-29T12:47:36;11;;;2.5;;
76548;SDS011;65391;52.068;4.542;2023-12-29T12:50:00;12.7;;;2.9;;
76548;SDS011;65391;52.068;4.542;2023-12-29T12:52:24;12.7;;;2.9;;
76548;SDS011;65391;52.068;4.542;2023-12-29T12:54:49;12.7;;;2.9;;
76548;SDS011;65391;52.068;4.542;2023-12-29T12:57:18;12.7;;;2.9;;
76548;SDS011;65391;52.068;4.542;2023-12-29T12:59:39;13.8;;;2.6;;
76548;SDS011;65391;52.068;4.542;2023-12-29T13:02:04;13.8;;;2.6;;
76548;SDS011;65391;52.068;4.542;2023-12-29T13:04:29;13.8;;;2.6;;
76548;SDS011;65391;52.068;4.542;2023-12-29T13:06:54;13.8;;;2.6;;
76548;SDS011;65391;52.068;4.542;2023-12-29T13:09:19;9.9;;;2.6;;
76548;SDS011;65391;52.068;4.542;2023-12-29T13:11:44;9.9;;;2.6;;
76548;SDS011;65391;52.068;4.542;2023-12-29T13:14:19;9.9;;;2.6;;
76548;SDS011;65391;52.068;4.542;2023-12-29T13:16:36;9.9;;;2.6;;
76548;SDS011;65391;52.068;4.542;2023-12-29T13:19:14;12.7;;;2.8;;
76548;SDS011;65391;52.068;4.542;2023-12-29T13:21:24;12.7;;;2.8;;
76548;SDS011;65391;52.068;4.542;2023-12-29T13:23:49;12.7;;;2.8;;
76548;SDS011;65391;52.068;4.542;2023-12-29T13:26:14;12.7;;;2.8;;
76548;SDS011;65391;52.068;4.542;2023-12-29T13:28:39;12.8;;;1.8;;
76548;SDS011;65391;52.068;4.542;2023-12-29T13:31:04;12.8;;;1.8;;
76548;SDS011;65391;52.068;4.542;2023-12-29T13:33:31;12.8;;;1.8;;
76548;SDS011;65391;52.068;4.542;2023-12-29T13:35:56;12.8;;;1.8;;
76548;SDS011;65391;52.068;4.542;2023-12-29T13:38:21;16.3;;;3.5;;
76548;SDS011;65391;52.068;4.542;2023-12-29T13:40:46;16.3;;;3.5;;
76548;SDS011;65391;52.068;4.542;2023-12-29T13:43:10;16.3;;;3.5;;
76548;SDS011;65391;52.068;4.542;2023-12-29T13:45:34;16.3;;;3.5;;
76548;SDS011;65391;52.068;4.542;2023-12-29T13:48:00;16.3;;;3.5;;
76548;SDS011;65391;52.068;4.542;2023-12-29T13:50:24;15.2;;;3.1;;
76548;SDS011;65391;52.068;4.542;2023-12-29T13:52:49;15.2;;;3.1;;
76548;SDS011;65391;52.068;4.542;2023-12-29T13:55:20;15.2;;;3.1;;
76548;SDS011;65391;52.068;4.542;2023-12-29T13:57:39;15.2;;;3.1;;
76548;SDS011;65391;52.068;4.542;2023-12-29T14:00:21;9.6;;;1.7;;
76548;SDS011;65391;52.068;4.542;2023-12-29T14:02:31;9.6;;;1.7;;
76548;SDS011;65391;52.068;4.542;2023-12-29T14:05:11;9.6;;;1.7;;
76548;SDS011;65391;52.068;4.542;2023-12-29T14:07:19;9.6;;;1.7;;
76548;SDS011;65391;52.068;4.542;2023-12-29T14:09:44;15;;;3.7;;
76548;SDS011;65391;52.068;4.542;2023-12-29T14:12:10;15;;;3.7;;
76548;SDS011;65391;52.068;4.542;2023-12-29T14:14:34;15;;;3.7;;
76548;SDS011;65391;52.068;4.542;2023-12-29T14:16:59;15;;;3.7;;
76548;SDS011;65391;52.068;4.542;2023-12-29T14:19:24;13.8;;;2.4;;
76548;SDS011;65391;52.068;4.542;2023-12-29T14:21:51;13.8;;;2.4;;
76548;SDS011;65391;52.068;4.542;2023-12-29T14:24:15;13.8;;;2.4;;
76548;SDS011;65391;52.068;4.542;2023-12-29T14:26:40;13.8;;;2.4;;
76548;SDS011;65391;52.068;4.542;2023-12-29T14:29:05;13.9;;;2.7;;
76548;SDS011;65391;52.068;4.542;2023-12-29T14:31:31;13.9;;;2.7;;
76548;SDS011;65391;52.068;4.542;2023-12-29T14:33:55;13.9;;;2.7;;
76548;SDS011;65391;52.068;4.542;2023-12-29T14:36:19;13.9;;;2.7;;
76548;SDS011;65391;52.068;4.542;2023-12-29T14:38:44;14.7;;;3.8;;
76548;SDS011;65391;52.068;4.542;2023-12-29T14:41:09;14.7;;;3.8;;
76548;SDS011;65391;52.068;4.542;2023-12-29T14:43:34;14.7;;;3.8;;
76548;SDS011;65391;52.068;4.542;2023-12-29T14:46:00;14.7;;;3.8;;
76548;SDS011;65391;52.068;4.542;2023-12-29T14:48:25;14.5;;;3.6;;
76548;SDS011;65391;52.068;4.542;2023-12-29T14:50:50;14.5;;;3.6;;
76548;SDS011;65391;52.068;4.542;2023-12-29T14:53:15;14.5;;;3.6;;